sensor_id;sensor_type;location;lat;lon;timestamp;P1;durP1;ratioP1;P2;durP2;ratioP2
60859;SDS011;46694;54.382;9.708;2023-11-21T00:00:29;8.03;;;6.90;;
60859;SDS011;46694;54.382;9.708;2023-11-21T00:02:55;6.87;;;5.70;;
60859;SDS011;46694;54.382;9.708;2023-11-21T00:05:20;25.20;;;6.33;;
60859;SDS011;46694;54.382;9.708;2023-11-21T00:07:48;9.57;;;6.13;;
60859;SDS011;46694;54.382;9.708;2023-11-21T00:10:14;7.73;;;7.03;;
60859;SDS011;46694;54.382;9.708;2023-11-21T00:12:40;10.37;;;7.70;;
60859;SDS011;46694;54.382;9.708;2023-11-21T00:15:07;15.20;;;7.50;;
60859;SDS011;46694;54.382;9.708;2023-11-21T00:17:37;13.43;;;6.90;;
60859;SDS011;46694;54.382;9.708;2023-11-21T00:20:04;10.50;;;7.10;;
60859;SDS011;46694;54.382;9.708;2023-11-21T00:22:36;20.73;;;7.40;;
60859;SDS011;46694;54.382;9.708;2023-11-21T00:25:02;9.50;;;6.83;;
60859;SDS011;46694;54.382;9.708;2023-11-21T00:27:29;11.57;;;6.60;;
60859;SDS011;46694;54.382;9.708;2023-11-21T00:29:55;8.17;;;6.33;;
60859;SDS011;46694;54.382;9.708;2023-11-21T00:32:20;10.83;;;6.30;;
60859;SDS011;46694;54.382;9.708;2023-11-21T00:34:46;10.77;;;6.27;;
60859;SDS011;46694;54.382;9.708;2023-11-21T00:37:12;9.10;;;7.03;;
60859;SDS011;46694;54.382;9.708;2023-11-21T00:39:37;15.67;;;8.10;;
60859;SDS011;46694;54.382;9.708;2023-11-21T00:42:03;10.13;;;7.10;;
60859;SDS011;46694;54.382;9.708;2023-11-21T00:44:30;9.53;;;8.10;;
60859;SDS011;46694;54.382;9.708;2023-11-21T00:46:55;9.97;;;7.60;;
60859;SDS011;46694;54.382;9.708;2023-11-21T00:49:21;11.77;;;8.80;;
60859;SDS011;46694;54.382;9.708;2023-11-21T00:51:47;9.43;;;8.50;;
60859;SDS011;46694;54.382;9.708;2023-11-21T00:54:12;14.13;;;7.70;;
60859;SDS011;46694;54.382;9.708;2023-11-21T00:56:38;14.50;;;9.10;;
60859;SDS011;46694;54.382;9.708;2023-11-21T00:59:05;10.33;;;7.27;;
60859;SDS011;46694;54.382;9.708;2023-11-21T01:01:32;12.87;;;6.77;;
60859;SDS011;46694;54.382;9.708;2023-11-21T01:03:57;12.00;;;7.47;;
60859;SDS011;46694;54.382;9.708;2023-11-21T01:06:23;13.27;;;7.50;;
60859;SDS011;46694;54.382;9.708;2023-11-21T01:08:52;16.70;;;8.13;;
60859;SDS011;46694;54.382;9.708;2023-11-21T01:11:17;13.33;;;6.43;;
60859;SDS011;46694;54.382;9.708;2023-11-21T01:13:43;10.23;;;6.40;;
60859;SDS011;46694;54.382;9.708;2023-11-21T01:16:09;10.77;;;7.90;;
60859;SDS011;46694;54.382;9.708;2023-11-21T01:18:35;13.67;;;7.63;;
60859;SDS011;46694;54.382;9.708;2023-11-21T01:21:01;10.07;;;7.00;;
60859;SDS011;46694;54.382;9.708;2023-11-21T01:23:27;12.80;;;7.23;;
60859;SDS011;46694;54.382;9.708;2023-11-21T01:25:54;9.20;;;7.57;;
60859;SDS011;46694;54.382;9.708;2023-11-21T01:28:20;13.47;;;8.40;;
60859;SDS011;46694;54.382;9.708;2023-11-21T01:30:46;8.00;;;7.20;;
60859;SDS011;46694;54.382;9.708;2023-11-21T01:33:12;12.33;;;8.07;;
60859;SDS011;46694;54.382;9.708;2023-11-21T01:35:41;10.20;;;8.13;;
60859;SDS011;46694;54.382;9.708;2023-11-21T01:38:07;11.03;;;7.50;;
60859;SDS011;46694;54.382;9.708;2023-11-21T01:40:33;8.80;;;7.90;;
60859;SDS011;46694;54.382;9.708;2023-11-21T01:42:59;24.70;;;9.80;;
60859;SDS011;46694;54.382;9.708;2023-11-21T01:45:27;12.90;;;9.17;;
60859;SDS011;46694;54.382;9.708;2023-11-21T01:47:54;10.10;;;9.03;;
60859;SDS011;46694;54.382;9.708;2023-11-21T01:50:20;20.30;;;9.10;;
60859;SDS011;46694;54.382;9.708;2023-11-21T01:52:47;16.93;;;9.47;;
60859;SDS011;46694;54.382;9.708;2023-11-21T01:55:14;12.40;;;9.77;;
60859;SDS011;46694;54.382;9.708;2023-11-21T01:57:45;16.70;;;8.53;;
60859;SDS011;46694;54.382;9.708;2023-11-21T02:00:11;9.70;;;8.50;;
60859;SDS011;46694;54.382;9.708;2023-11-21T02:02:44;19.73;;;9.80;;
60859;SDS011;46694;54.382;9.708;2023-11-21T02:05:11;10.67;;;9.57;;
60859;SDS011;46694;54.382;9.708;2023-11-21T02:07:41;20.10;;;11.10;;
60859;SDS011;46694;54.382;9.708;2023-11-21T02:10:08;16.17;;;10.70;;
60859;SDS011;46694;54.382;9.708;2023-11-21T02:12:34;13.90;;;10.03;;
60859;SDS011;46694;54.382;9.708;2023-11-21T02:15:03;12.53;;;8.93;;
60859;SDS011;46694;54.382;9.708;2023-11-21T02:17:39;14.20;;;10.43;;
60859;SDS011;46694;54.382;9.708;2023-11-21T02:20:09;13.67;;;11.23;;
60859;SDS011;46694;54.382;9.708;2023-11-21T02:22:40;20.80;;;11.40;;
60859;SDS011;46694;54.382;9.708;2023-11-21T02:25:07;16.63;;;11.40;;
60859;SDS011;46694;54.382;9.708;2023-11-21T02:27:33;18.50;;;12.53;;
60859;SDS011;46694;54.382;9.708;2023-11-21T02:29:59;17.10;;;10.20;;
60859;SDS011;46694;54.382;9.708;2023-11-21T02:32:26;21.93;;;10.53;;
60859;SDS011;46694;54.382;9.708;2023-11-21T02:34:52;13.30;;;11.50;;
60859;SDS011;46694;54.382;9.708;2023-11-21T02:37:21;13.50;;;10.93;;
60859;SDS011;46694;54.382;9.708;2023-11-21T02:39:46;14.00;;;11.10;;
60859;SDS011;46694;54.382;9.708;2023-11-21T02:42:12;10.23;;;8.83;;
60859;SDS011;46694;54.382;9.708;2023-11-21T02:44:38;14.20;;;10.33;;
60859;SDS011;46694;54.382;9.708;2023-11-21T02:47:03;19.20;;;10.13;;
60859;SDS011;46694;54.382;9.708;2023-11-21T02:49:29;17.43;;;10.13;;
60859;SDS011;46694;54.382;9.708;2023-11-21T02:51:55;13.97;;;9.97;;
60859;SDS011;46694;54.382;9.708;2023-11-21T02:54:21;15.73;;;9.93;;
60859;SDS011;46694;54.382;9.708;2023-11-21T02:56:47;12.30;;;9.80;;
60859;SDS011;46694;54.382;9.708;2023-11-21T02:59:14;14.60;;;11.27;;
60859;SDS011;46694;54.382;9.708;2023-11-21T03:01:41;12.53;;;9.97;;
60859;SDS011;46694;54.382;9.708;2023-11-21T03:04:07;14.03;;;10.43;;
60859;SDS011;46694;54.382;9.708;2023-11-21T03:06:33;11.20;;;8.07;;
60859;SDS011;46694;54.382;9.708;2023-11-21T03:08:59;20.80;;;8.80;;
60859;SDS011;46694;54.382;9.708;2023-11-21T03:11:24;18.03;;;9.00;;
60859;SDS011;46694;54.382;9.708;2023-11-21T03:13:50;19.53;;;10.57;;
60859;SDS011;46694;54.382;9.708;2023-11-21T03:16:16;22.20;;;11.00;;
60859;SDS011;46694;54.382;9.708;2023-11-21T03:18:48;13.77;;;11.27;;
60859;SDS011;46694;54.382;9.708;2023-11-21T03:21:13;16.00;;;10.17;;
60859;SDS011;46694;54.382;9.708;2023-11-21T03:23:39;12.10;;;10.80;;
60859;SDS011;46694;54.382;9.708;2023-11-21T03:26:05;14.37;;;11.87;;
60859;SDS011;46694;54.382;9.708;2023-11-21T03:31:54;10.93;;;9.63;;
60859;SDS011;46694;54.382;9.708;2023-11-21T03:34:24;14.83;;;9.93;;
60859;SDS011;46694;54.382;9.708;2023-11-21T03:36:51;14.80;;;9.20;;
60859;SDS011;46694;54.382;9.708;2023-11-21T03:39:18;11.70;;;9.50;;
60859;SDS011;46694;54.382;9.708;2023-11-21T03:41:47;11.20;;;7.93;;
60859;SDS011;46694;54.382;9.708;2023-11-21T03:44:13;15.60;;;9.77;;
60859;SDS011;46694;54.382;9.708;2023-11-21T03:46:39;16.03;;;9.10;;
60859;SDS011;46694;54.382;9.708;2023-11-21T03:49:05;9.23;;;7.67;;
60859;SDS011;46694;54.382;9.708;2023-11-21T03:51:30;11.23;;;8.33;;
60859;SDS011;46694;54.382;9.708;2023-11-21T03:53:56;8.90;;;7.03;;
60859;SDS011;46694;54.382;9.708;2023-11-21T03:56:22;8.30;;;6.20;;
60859;SDS011;46694;54.382;9.708;2023-11-21T03:58:48;4.10;;;3.70;;
60859;SDS011;46694;54.382;9.708;2023-11-21T04:01:23;5.63;;;4.73;;
60859;SDS011;46694;54.382;9.708;2023-11-21T04:03:50;4.00;;;3.70;;
60859;SDS011;46694;54.382;9.708;2023-11-21T04:06:17;4.20;;;3.90;;
60859;SDS011;46694;54.382;9.708;2023-11-21T04:08:43;4.77;;;3.60;;
60859;SDS011;46694;54.382;9.708;2023-11-21T04:11:10;3.90;;;3.60;;
60859;SDS011;46694;54.382;9.708;2023-11-21T04:13:39;5.90;;;3.40;;
60859;SDS011;46694;54.382;9.708;2023-11-21T04:16:06;4.27;;;3.87;;
60859;SDS011;46694;54.382;9.708;2023-11-21T04:18:33;3.87;;;3.53;;
60859;SDS011;46694;54.382;9.708;2023-11-21T04:21:00;3.87;;;3.57;;
60859;SDS011;46694;54.382;9.708;2023-11-21T04:26:19;7.90;;;3.93;;
60859;SDS011;46694;54.382;9.708;2023-11-21T04:28:44;4.17;;;3.17;;
60859;SDS011;46694;54.382;9.708;2023-11-21T04:31:10;8.80;;;3.03;;
60859;SDS011;46694;54.382;9.708;2023-11-21T04:33:36;5.03;;;3.93;;
60859;SDS011;46694;54.382;9.708;2023-11-21T04:36:01;4.13;;;3.73;;
60859;SDS011;46694;54.382;9.708;2023-11-21T04:38:27;3.53;;;3.23;;
60859;SDS011;46694;54.382;9.708;2023-11-21T04:40:53;4.10;;;3.70;;
60859;SDS011;46694;54.382;9.708;2023-11-21T04:43:18;6.17;;;3.90;;
60859;SDS011;46694;54.382;9.708;2023-11-21T04:45:44;4.37;;;3.67;;
60859;SDS011;46694;54.382;9.708;2023-11-21T04:48:09;5.53;;;3.80;;
60859;SDS011;46694;54.382;9.708;2023-11-21T04:50:35;4.20;;;3.60;;
60859;SDS011;46694;54.382;9.708;2023-11-21T04:53:01;7.00;;;3.67;;
60859;SDS011;46694;54.382;9.708;2023-11-21T04:55:27;4.10;;;3.43;;
60859;SDS011;46694;54.382;9.708;2023-11-21T04:57:53;9.70;;;3.90;;
60859;SDS011;46694;54.382;9.708;2023-11-21T05:00:19;5.60;;;3.77;;
60859;SDS011;46694;54.382;9.708;2023-11-21T05:02:46;4.10;;;3.47;;
60859;SDS011;46694;54.382;9.708;2023-11-21T05:05:12;7.83;;;3.87;;
60859;SDS011;46694;54.382;9.708;2023-11-21T05:07:38;7.20;;;4.17;;
60859;SDS011;46694;54.382;9.708;2023-11-21T05:10:05;4.20;;;3.30;;
60859;SDS011;46694;54.382;9.708;2023-11-21T05:12:36;6.33;;;3.77;;
60859;SDS011;46694;54.382;9.708;2023-11-21T05:15:05;6.23;;;3.60;;
60859;SDS011;46694;54.382;9.708;2023-11-21T05:17:35;4.23;;;3.10;;
60859;SDS011;46694;54.382;9.708;2023-11-21T05:20:02;6.60;;;4.00;;
60859;SDS011;46694;54.382;9.708;2023-11-21T05:22:29;4.23;;;3.80;;
60859;SDS011;46694;54.382;9.708;2023-11-21T05:24:55;3.70;;;3.03;;
60859;SDS011;46694;54.382;9.708;2023-11-21T05:27:21;6.40;;;3.20;;
60859;SDS011;46694;54.382;9.708;2023-11-21T05:29:46;3.77;;;3.23;;
60859;SDS011;46694;54.382;9.708;2023-11-21T05:32:12;4.73;;;3.20;;
60859;SDS011;46694;54.382;9.708;2023-11-21T05:34:38;7.43;;;3.83;;
60859;SDS011;46694;54.382;9.708;2023-11-21T05:37:03;5.90;;;4.83;;
60859;SDS011;46694;54.382;9.708;2023-11-21T05:39:30;4.63;;;3.57;;
60859;SDS011;46694;54.382;9.708;2023-11-21T05:41:56;3.20;;;2.90;;
60859;SDS011;46694;54.382;9.708;2023-11-21T05:44:22;14.10;;;3.13;;
60859;SDS011;46694;54.382;9.708;2023-11-21T05:46:48;7.57;;;3.20;;
60859;SDS011;46694;54.382;9.708;2023-11-21T05:49:15;4.43;;;3.00;;
60859;SDS011;46694;54.382;9.708;2023-11-21T05:51:41;10.10;;;3.67;;
60859;SDS011;46694;54.382;9.708;2023-11-21T05:54:07;3.83;;;3.20;;
60859;SDS011;46694;54.382;9.708;2023-11-21T05:56:33;4.60;;;3.40;;
60859;SDS011;46694;54.382;9.708;2023-11-21T05:58:59;4.93;;;3.60;;
60859;SDS011;46694;54.382;9.708;2023-11-21T06:01:25;5.43;;;3.43;;
60859;SDS011;46694;54.382;9.708;2023-11-21T06:03:54;4.13;;;3.00;;
60859;SDS011;46694;54.382;9.708;2023-11-21T06:06:20;6.60;;;3.37;;
60859;SDS011;46694;54.382;9.708;2023-11-21T06:08:53;4.17;;;3.00;;
60859;SDS011;46694;54.382;9.708;2023-11-21T06:11:19;3.10;;;2.90;;
60859;SDS011;46694;54.382;9.708;2023-11-21T06:13:44;4.73;;;2.40;;
60859;SDS011;46694;54.382;9.708;2023-11-21T06:16:10;4.20;;;2.93;;
60859;SDS011;46694;54.382;9.708;2023-11-21T06:18:39;5.83;;;3.00;;
60859;SDS011;46694;54.382;9.708;2023-11-21T06:21:05;3.27;;;2.93;;
60859;SDS011;46694;54.382;9.708;2023-11-21T06:23:34;4.27;;;3.77;;
60859;SDS011;46694;54.382;9.708;2023-11-21T06:26:00;4.33;;;3.20;;
60859;SDS011;46694;54.382;9.708;2023-11-21T06:28:25;3.63;;;2.97;;
60859;SDS011;46694;54.382;9.708;2023-11-21T06:30:51;4.33;;;3.60;;
60859;SDS011;46694;54.382;9.708;2023-11-21T06:33:18;8.37;;;3.73;;
60859;SDS011;46694;54.382;9.708;2023-11-21T06:35:44;4.10;;;3.50;;
60859;SDS011;46694;54.382;9.708;2023-11-21T06:38:10;5.00;;;4.50;;
60859;SDS011;46694;54.382;9.708;2023-11-21T06:40:35;11.00;;;4.27;;
60859;SDS011;46694;54.382;9.708;2023-11-21T06:43:01;6.20;;;3.97;;
60859;SDS011;46694;54.382;9.708;2023-11-21T06:45:27;11.00;;;4.77;;
60859;SDS011;46694;54.382;9.708;2023-11-21T06:47:53;13.03;;;4.23;;
60859;SDS011;46694;54.382;9.708;2023-11-21T06:50:18;6.60;;;3.93;;
60859;SDS011;46694;54.382;9.708;2023-11-21T06:52:45;9.03;;;4.97;;
60859;SDS011;46694;54.382;9.708;2023-11-21T06:55:10;16.73;;;5.20;;
60859;SDS011;46694;54.382;9.708;2023-11-21T06:57:36;7.70;;;4.83;;
60859;SDS011;46694;54.382;9.708;2023-11-21T07:00:03;8.17;;;4.90;;
60859;SDS011;46694;54.382;9.708;2023-11-21T07:02:30;10.17;;;5.00;;
60859;SDS011;46694;54.382;9.708;2023-11-21T07:04:55;8.93;;;4.70;;
60859;SDS011;46694;54.382;9.708;2023-11-21T07:07:21;6.80;;;5.07;;
60859;SDS011;46694;54.382;9.708;2023-11-21T07:09:47;5.77;;;5.20;;
60859;SDS011;46694;54.382;9.708;2023-11-21T07:12:13;11.20;;;5.70;;
60859;SDS011;46694;54.382;9.708;2023-11-21T07:14:39;7.63;;;4.57;;
60859;SDS011;46694;54.382;9.708;2023-11-21T07:17:08;17.73;;;4.90;;
60859;SDS011;46694;54.382;9.708;2023-11-21T07:19:34;4.97;;;4.47;;
60859;SDS011;46694;54.382;9.708;2023-11-21T07:22:00;6.80;;;4.70;;
60859;SDS011;46694;54.382;9.708;2023-11-21T07:24:26;10.20;;;4.77;;
60859;SDS011;46694;54.382;9.708;2023-11-21T07:26:52;8.60;;;5.03;;
60859;SDS011;46694;54.382;9.708;2023-11-21T07:29:21;10.40;;;6.47;;
60859;SDS011;46694;54.382;9.708;2023-11-21T07:31:50;6.85;;;5.85;;
60859;SDS011;46694;54.382;9.708;2023-11-21T07:34:19;7.97;;;6.15;;
60859;SDS011;46694;54.382;9.708;2023-11-21T07:36:46;6.87;;;5.77;;
60859;SDS011;46694;54.382;9.708;2023-11-21T07:39:12;11.53;;;5.90;;
60859;SDS011;46694;54.382;9.708;2023-11-21T07:41:37;6.80;;;6.10;;
60859;SDS011;46694;54.382;9.708;2023-11-21T07:44:10;17.93;;;6.40;;
60859;SDS011;46694;54.382;9.708;2023-11-21T07:46:35;5.73;;;5.23;;
60859;SDS011;46694;54.382;9.708;2023-11-21T07:49:01;11.87;;;6.30;;
60859;SDS011;46694;54.382;9.708;2023-11-21T07:51:27;8.27;;;6.03;;
60859;SDS011;46694;54.382;9.708;2023-11-21T07:53:53;7.47;;;5.10;;
60859;SDS011;46694;54.382;9.708;2023-11-21T07:56:19;5.60;;;5.10;;
60859;SDS011;46694;54.382;9.708;2023-11-21T07:58:45;5.93;;;5.33;;
60859;SDS011;46694;54.382;9.708;2023-11-21T08:01:10;7.07;;;5.63;;
60859;SDS011;46694;54.382;9.708;2023-11-21T08:03:37;6.67;;;4.60;;
60859;SDS011;46694;54.382;9.708;2023-11-21T08:06:02;14.17;;;6.20;;
60859;SDS011;46694;54.382;9.708;2023-11-21T08:08:30;9.73;;;6.43;;
60859;SDS011;46694;54.382;9.708;2023-11-21T08:17:42;11.37;;;5.93;;
60859;SDS011;46694;54.382;9.708;2023-11-21T08:20:08;6.83;;;6.17;;
60859;SDS011;46694;54.382;9.708;2023-11-21T08:22:36;14.03;;;5.20;;
60859;SDS011;46694;54.382;9.708;2023-11-21T08:25:02;8.57;;;6.23;;
60859;SDS011;46694;54.382;9.708;2023-11-21T08:27:31;7.50;;;6.80;;
60859;SDS011;46694;54.382;9.708;2023-11-21T08:29:57;13.83;;;5.80;;
60859;SDS011;46694;54.382;9.708;2023-11-21T08:32:23;9.63;;;5.53;;
60859;SDS011;46694;54.382;9.708;2023-11-21T08:34:49;13.60;;;6.03;;
60859;SDS011;46694;54.382;9.708;2023-11-21T08:37:16;9.88;;;5.32;;
60859;SDS011;46694;54.382;9.708;2023-11-21T08:39:43;6.00;;;4.40;;
60859;SDS011;46694;54.382;9.708;2023-11-21T08:42:09;7.63;;;5.83;;
60859;SDS011;46694;54.382;9.708;2023-11-21T08:44:35;5.83;;;4.27;;
60859;SDS011;46694;54.382;9.708;2023-11-21T08:47:01;7.13;;;5.13;;
60859;SDS011;46694;54.382;9.708;2023-11-21T08:49:27;7.03;;;4.10;;
60859;SDS011;46694;54.382;9.708;2023-11-21T08:51:54;6.60;;;4.90;;
60859;SDS011;46694;54.382;9.708;2023-11-21T08:54:24;9.40;;;4.80;;
60859;SDS011;46694;54.382;9.708;2023-11-21T08:56:51;5.90;;;4.40;;
60859;SDS011;46694;54.382;9.708;2023-11-21T08:59:18;20.40;;;4.90;;
60859;SDS011;46694;54.382;9.708;2023-11-21T09:01:45;8.77;;;3.83;;
60859;SDS011;46694;54.382;9.708;2023-11-21T09:04:11;5.07;;;4.13;;
60859;SDS011;46694;54.382;9.708;2023-11-21T09:06:37;6.20;;;4.20;;
60859;SDS011;46694;54.382;9.708;2023-11-21T09:09:05;5.63;;;4.00;;
60859;SDS011;46694;54.382;9.708;2023-11-21T09:11:31;4.70;;;3.90;;
60859;SDS011;46694;54.382;9.708;2023-11-21T09:13:59;5.57;;;3.83;;
60859;SDS011;46694;54.382;9.708;2023-11-21T09:16:25;8.00;;;5.17;;
60859;SDS011;46694;54.382;9.708;2023-11-21T09:18:51;10.13;;;4.33;;
60859;SDS011;46694;54.382;9.708;2023-11-21T09:21:17;6.30;;;4.10;;
60859;SDS011;46694;54.382;9.708;2023-11-21T09:23:44;6.53;;;4.50;;
60859;SDS011;46694;54.382;9.708;2023-11-21T09:26:10;5.23;;;4.10;;
60859;SDS011;46694;54.382;9.708;2023-11-21T09:28:35;10.43;;;4.80;;
60859;SDS011;46694;54.382;9.708;2023-11-21T09:31:07;6.13;;;5.53;;
60859;SDS011;46694;54.382;9.708;2023-11-21T09:33:34;10.23;;;5.97;;
60859;SDS011;46694;54.382;9.708;2023-11-21T09:36:00;5.57;;;4.80;;
60859;SDS011;46694;54.382;9.708;2023-11-21T09:38:29;11.60;;;6.80;;
60859;SDS011;46694;54.382;9.708;2023-11-21T09:40:55;8.90;;;5.97;;
60859;SDS011;46694;54.382;9.708;2023-11-21T09:43:23;8.17;;;5.93;;
60859;SDS011;46694;54.382;9.708;2023-11-21T09:45:56;8.02;;;5.75;;
60859;SDS011;46694;54.382;9.708;2023-11-21T09:48:26;7.03;;;5.27;;
60859;SDS011;46694;54.382;9.708;2023-11-21T09:50:54;7.53;;;5.70;;
60859;SDS011;46694;54.382;9.708;2023-11-21T09:53:20;6.23;;;5.57;;
60859;SDS011;46694;54.382;9.708;2023-11-21T09:55:49;5.43;;;4.90;;
60859;SDS011;46694;54.382;9.708;2023-11-21T09:58:17;4.70;;;4.20;;
60859;SDS011;46694;54.382;9.708;2023-11-21T10:00:47;10.97;;;3.93;;
60859;SDS011;46694;54.382;9.708;2023-11-21T10:03:17;4.73;;;4.13;;
60859;SDS011;46694;54.382;9.708;2023-11-21T10:05:43;5.63;;;4.10;;
60859;SDS011;46694;54.382;9.708;2023-11-21T10:08:13;11.83;;;4.33;;
60859;SDS011;46694;54.382;9.708;2023-11-21T10:10:43;8.37;;;4.50;;
60859;SDS011;46694;54.382;9.708;2023-11-21T10:13:11;4.53;;;4.13;;
60859;SDS011;46694;54.382;9.708;2023-11-21T10:15:38;6.13;;;4.47;;
60859;SDS011;46694;54.382;9.708;2023-11-21T10:18:06;5.40;;;4.30;;
60859;SDS011;46694;54.382;9.708;2023-11-21T10:20:34;5.43;;;4.30;;
60859;SDS011;46694;54.382;9.708;2023-11-21T10:23:00;4.83;;;4.30;;
60859;SDS011;46694;54.382;9.708;2023-11-21T10:25:29;8.83;;;4.10;;
60859;SDS011;46694;54.382;9.708;2023-11-21T10:27:59;6.10;;;4.50;;
60859;SDS011;46694;54.382;9.708;2023-11-21T10:30:33;4.43;;;3.83;;
60859;SDS011;46694;54.382;9.708;2023-11-21T10:33:06;5.67;;;4.17;;
60859;SDS011;46694;54.382;9.708;2023-11-21T10:35:45;7.30;;;4.13;;
60859;SDS011;46694;54.382;9.708;2023-11-21T10:38:13;7.33;;;5.23;;
60859;SDS011;46694;54.382;9.708;2023-11-21T10:40:42;9.33;;;5.70;;
60859;SDS011;46694;54.382;9.708;2023-11-21T10:43:11;5.33;;;4.80;;
60859;SDS011;46694;54.382;9.708;2023-11-21T10:45:40;5.83;;;4.70;;
60859;SDS011;46694;54.382;9.708;2023-11-21T10:48:13;6.43;;;4.20;;
60859;SDS011;46694;54.382;9.708;2023-11-21T10:50:40;14.90;;;6.27;;
60859;SDS011;46694;54.382;9.708;2023-11-21T10:53:07;6.60;;;4.70;;
60859;SDS011;46694;54.382;9.708;2023-11-21T10:55:33;5.30;;;4.60;;
60859;SDS011;46694;54.382;9.708;2023-11-21T10:58:00;7.70;;;4.90;;
60859;SDS011;46694;54.382;9.708;2023-11-21T11:00:28;8.33;;;5.10;;
60859;SDS011;46694;54.382;9.708;2023-11-21T11:02:54;5.37;;;4.50;;
60859;SDS011;46694;54.382;9.708;2023-11-21T11:05:22;8.27;;;5.23;;
60859;SDS011;46694;54.382;9.708;2023-11-21T11:07:52;7.97;;;4.87;;
60859;SDS011;46694;54.382;9.708;2023-11-21T11:10:26;10.17;;;5.20;;
60859;SDS011;46694;54.382;9.708;2023-11-21T11:12:54;5.97;;;5.00;;
60859;SDS011;46694;54.382;9.708;2023-11-21T11:15:21;4.93;;;4.43;;
60859;SDS011;46694;54.382;9.708;2023-11-21T11:17:46;12.37;;;4.37;;
60859;SDS011;46694;54.382;9.708;2023-11-21T11:20:14;5.80;;;4.90;;
60859;SDS011;46694;54.382;9.708;2023-11-21T11:22:44;4.63;;;3.63;;
60859;SDS011;46694;54.382;9.708;2023-11-21T11:25:27;6.33;;;4.90;;
60859;SDS011;46694;54.382;9.708;2023-11-21T11:33:59;5.03;;;4.50;;
60859;SDS011;46694;54.382;9.708;2023-11-21T11:37:15;5.40;;;4.50;;
60859;SDS011;46694;54.382;9.708;2023-11-21T11:39:39;5.97;;;4.80;;
60859;SDS011;46694;54.382;9.708;2023-11-21T11:42:12;3.83;;;2.60;;
60859;SDS011;46694;54.382;9.708;2023-11-21T11:47:20;6.30;;;2.70;;
60859;SDS011;46694;54.382;9.708;2023-11-21T11:50:11;2.70;;;2.50;;
60859;SDS011;46694;54.382;9.708;2023-11-21T11:55:14;3.00;;;2.80;;
60859;SDS011;46694;54.382;9.708;2023-11-21T11:57:47;3.83;;;2.75;;
60859;SDS011;46694;54.382;9.708;2023-11-21T12:00:20;3.30;;;3.00;;
60859;SDS011;46694;54.382;9.708;2023-11-21T12:02:54;2.93;;;2.73;;
60859;SDS011;46694;54.382;9.708;2023-11-21T12:05:26;7.13;;;2.90;;
60859;SDS011;46694;54.382;9.708;2023-11-21T12:07:53;3.60;;;3.30;;
60859;SDS011;46694;54.382;9.708;2023-11-21T12:10:25;5.10;;;3.33;;
60859;SDS011;46694;54.382;9.708;2023-11-21T12:13:29;6.13;;;4.07;;
60859;SDS011;46694;54.382;9.708;2023-11-21T12:15:55;3.90;;;3.40;;
60859;SDS011;46694;54.382;9.708;2023-11-21T12:18:21;4.13;;;3.73;;
60859;SDS011;46694;54.382;9.708;2023-11-21T12:20:46;3.00;;;2.70;;
60859;SDS011;46694;54.382;9.708;2023-11-21T12:23:15;5.53;;;2.87;;
60859;SDS011;46694;54.382;9.708;2023-11-21T12:25:42;2.85;;;2.65;;
60859;SDS011;46694;54.382;9.708;2023-11-21T12:28:08;2.95;;;2.72;;
60859;SDS011;46694;54.382;9.708;2023-11-21T12:30:34;3.50;;;3.20;;
60859;SDS011;46694;54.382;9.708;2023-11-21T12:33:01;2.97;;;2.83;;
60859;SDS011;46694;54.382;9.708;2023-11-21T12:35:29;4.13;;;3.22;;
60859;SDS011;46694;54.382;9.708;2023-11-21T12:37:58;3.28;;;2.78;;
60859;SDS011;46694;54.382;9.708;2023-11-21T12:40:25;6.23;;;3.77;;
60859;SDS011;46694;54.382;9.708;2023-11-21T12:42:51;4.22;;;3.92;;
60859;SDS011;46694;54.382;9.708;2023-11-21T12:45:20;5.25;;;3.10;;
60859;SDS011;46694;54.382;9.708;2023-11-21T12:47:51;4.63;;;4.10;;
60859;SDS011;46694;54.382;9.708;2023-11-21T12:50:24;4.05;;;3.60;;
60859;SDS011;46694;54.382;9.708;2023-11-21T12:52:58;4.90;;;3.55;;
60859;SDS011;46694;54.382;9.708;2023-11-21T12:55:25;4.10;;;3.65;;
60859;SDS011;46694;54.382;9.708;2023-11-21T12:57:54;3.30;;;3.10;;
60859;SDS011;46694;54.382;9.708;2023-11-21T13:00:43;3.70;;;3.40;;
60859;SDS011;46694;54.382;9.708;2023-11-21T13:03:13;6.25;;;3.67;;
60859;SDS011;46694;54.382;9.708;2023-11-21T13:05:48;5.43;;;3.97;;
60859;SDS011;46694;54.382;9.708;2023-11-21T13:08:16;7.80;;;2.87;;
60859;SDS011;46694;54.382;9.708;2023-11-21T13:10:49;12.70;;;3.53;;
60859;SDS011;46694;54.382;9.708;2023-11-21T13:13:15;2.50;;;2.30;;
60859;SDS011;46694;54.382;9.708;2023-11-21T13:15:51;4.40;;;2.57;;
60859;SDS011;46694;54.382;9.708;2023-11-21T13:18:18;3.05;;;2.50;;
60859;SDS011;46694;54.382;9.708;2023-11-21T13:20:46;5.20;;;2.90;;
60859;SDS011;46694;54.382;9.708;2023-11-21T13:23:12;4.47;;;2.47;;
60859;SDS011;46694;54.382;9.708;2023-11-21T13:25:38;2.43;;;2.20;;
60859;SDS011;46694;54.382;9.708;2023-11-21T13:28:06;9.77;;;2.70;;
60859;SDS011;46694;54.382;9.708;2023-11-21T13:30:33;2.60;;;2.40;;
60859;SDS011;46694;54.382;9.708;2023-11-21T13:33:02;4.33;;;3.03;;
60859;SDS011;46694;54.382;9.708;2023-11-21T13:35:31;5.77;;;3.10;;
60859;SDS011;46694;54.382;9.708;2023-11-21T13:38:07;5.43;;;2.53;;
60859;SDS011;46694;54.382;9.708;2023-11-21T13:40:35;5.80;;;2.67;;
60859;SDS011;46694;54.382;9.708;2023-11-21T13:43:20;5.47;;;2.70;;
60859;SDS011;46694;54.382;9.708;2023-11-21T13:45:49;2.90;;;2.20;;
60859;SDS011;46694;54.382;9.708;2023-11-21T13:48:28;2.50;;;2.30;;
60859;SDS011;46694;54.382;9.708;2023-11-21T13:51:03;9.15;;;2.70;;
60859;SDS011;46694;54.382;9.708;2023-11-21T13:53:48;5.28;;;2.75;;
60859;SDS011;46694;54.382;9.708;2023-11-21T13:56:18;2.40;;;2.30;;
60859;SDS011;46694;54.382;9.708;2023-11-21T13:58:53;3.63;;;2.83;;
60859;SDS011;46694;54.382;9.708;2023-11-21T14:01:21;3.20;;;2.70;;
60859;SDS011;46694;54.382;9.708;2023-11-21T14:03:48;2.78;;;2.58;;
60859;SDS011;46694;54.382;9.708;2023-11-21T14:06:21;5.07;;;3.50;;
60859;SDS011;46694;54.382;9.708;2023-11-21T14:08:52;3.72;;;3.15;;
60859;SDS011;46694;54.382;9.708;2023-11-21T14:11:21;4.20;;;3.13;;
60859;SDS011;46694;54.382;9.708;2023-11-21T14:13:47;3.40;;;2.10;;
60859;SDS011;46694;54.382;9.708;2023-11-21T14:16:13;4.55;;;3.05;;
60859;SDS011;46694;54.382;9.708;2023-11-21T14:18:42;4.25;;;2.97;;
60859;SDS011;46694;54.382;9.708;2023-11-21T14:21:21;9.68;;;3.85;;
60859;SDS011;46694;54.382;9.708;2023-11-21T14:23:47;6.13;;;3.75;;
60859;SDS011;46694;54.382;9.708;2023-11-21T14:26:13;4.43;;;3.50;;
60859;SDS011;46694;54.382;9.708;2023-11-21T14:28:40;3.33;;;3.00;;
60859;SDS011;46694;54.382;9.708;2023-11-21T14:31:06;5.13;;;3.63;;
60859;SDS011;46694;54.382;9.708;2023-11-21T14:33:33;3.30;;;2.88;;
60859;SDS011;46694;54.382;9.708;2023-11-21T14:35:59;4.63;;;4.20;;
60859;SDS011;46694;54.382;9.708;2023-11-21T14:38:24;12.77;;;4.30;;
60859;SDS011;46694;54.382;9.708;2023-11-21T14:40:50;4.27;;;3.87;;
60859;SDS011;46694;54.382;9.708;2023-11-21T14:43:16;4.20;;;3.20;;
60859;SDS011;46694;54.382;9.708;2023-11-21T14:45:44;9.88;;;4.85;;
60859;SDS011;46694;54.382;9.708;2023-11-21T14:48:09;4.47;;;4.07;;
60859;SDS011;46694;54.382;9.708;2023-11-21T14:50:41;5.43;;;4.30;;
60859;SDS011;46694;54.382;9.708;2023-11-21T14:53:08;6.38;;;4.32;;
60859;SDS011;46694;54.382;9.708;2023-11-21T14:55:34;6.43;;;4.80;;
60859;SDS011;46694;54.382;9.708;2023-11-21T14:58:19;7.28;;;4.78;;
60859;SDS011;46694;54.382;9.708;2023-11-21T15:01:00;6.20;;;4.88;;
60859;SDS011;46694;54.382;9.708;2023-11-21T15:03:26;8.85;;;4.57;;
60859;SDS011;46694;54.382;9.708;2023-11-21T15:05:55;5.50;;;3.42;;
60859;SDS011;46694;54.382;9.708;2023-11-21T15:08:48;4.97;;;3.42;;
60859;SDS011;46694;54.382;9.708;2023-11-21T15:11:21;8.20;;;4.35;;